createdAt,value
2022-08-16T00:00:22.508Z,21.00
2022-08-16T00:02:51.775Z,21.00
2022-08-16T00:05:22.368Z,21.00
2022-08-16T00:07:56.258Z,21.00
2022-08-16T00:10:27.271Z,21.00
2022-08-16T00:12:57.257Z,21.00
2022-08-16T00:15:51.708Z,21.00
2022-08-16T00:18:29.716Z,21.00
2022-08-16T00:21:01.475Z,21.00
2022-08-16T00:23:34.930Z,21.00
2022-08-16T00:26:36.159Z,21.00
2022-08-16T00:28:57.007Z,21.00
2022-08-16T00:31:27.656Z,21.00
2022-08-16T00:34:18.404Z,21.00
2022-08-16T00:36:48.442Z,21.00
2022-08-16T00:39:24.149Z,21.00
2022-08-16T00:41:52.401Z,21.00
2022-08-16T00:44:23.172Z,21.00
2022-08-16T00:47:08.625Z,21.00
2022-08-16T00:49:39.360Z,21.00
2022-08-16T00:52:29.962Z,21.00
2022-08-16T00:54:59.630Z,21.00
2022-08-16T00:57:58.490Z,21.00
2022-08-16T01:00:19.844Z,21.00
2022-08-16T01:02:50.818Z,21.00
2022-08-16T01:05:19.489Z,20.90
2022-08-16T01:07:58.583Z,20.90
2022-08-16T01:10:33.350Z,20.90
2022-08-16T01:13:06.832Z,20.90
2022-08-16T01:15:37.675Z,20.90
2022-08-16T01:18:39.936Z,20.90
2022-08-16T01:21:22.107Z,20.90
2022-08-16T01:24:02.223Z,20.90
2022-08-16T01:26:34.552Z,20.90
2022-08-16T01:29:09.940Z,20.90
2022-08-16T01:31:42.881Z,20.90
2022-08-16T01:34:23.002Z,20.90
2022-08-16T01:37:03.726Z,20.90
2022-08-16T01:39:35.151Z,20.80
2022-08-16T01:42:12.158Z,20.90
2022-08-16T01:44:42.093Z,20.80
2022-08-16T01:47:12.114Z,20.90
2022-08-16T01:50:42.375Z,20.90
2022-08-16T01:52:31.130Z,20.90
2022-08-16T01:55:03.027Z,20.90
2022-08-16T01:57:31.586Z,20.90
2022-08-16T02:00:01.214Z,20.80
2022-08-16T02:02:30.620Z,20.80
2022-08-16T02:05:00.401Z,20.80
2022-08-16T02:07:30.690Z,20.80
2022-08-16T02:09:59.597Z,20.80
2022-08-16T02:12:49.742Z,20.80
2022-08-16T02:15:25.461Z,20.80
2022-08-16T02:17:53.813Z,20.80
2022-08-16T02:20:26.381Z,20.80
2022-08-16T02:22:56.171Z,20.80
2022-08-16T02:25:25.265Z,20.70
2022-08-16T02:28:17.232Z,20.70
2022-08-16T02:30:50.496Z,20.70
2022-08-16T02:33:19.276Z,20.70
2022-08-16T02:35:54.246Z,20.70
2022-08-16T02:38:29.115Z,20.70
2022-08-16T02:41:00.918Z,20.70
2022-08-16T02:43:34.435Z,20.70
2022-08-16T02:46:07.714Z,20.70
2022-08-16T02:48:38.457Z,20.70
2022-08-16T02:51:10.730Z,20.70
2022-08-16T02:53:43.000Z,20.60
2022-08-16T02:56:12.163Z,20.60
2022-08-16T02:58:45.208Z,20.60
2022-08-16T03:01:25.183Z,20.60
2022-08-16T03:04:29.214Z,20.60
2022-08-16T03:06:56.374Z,20.60
2022-08-16T03:09:28.777Z,20.60
2022-08-16T03:12:02.792Z,20.60
2022-08-16T03:14:34.739Z,20.50
2022-08-16T03:17:03.001Z,20.50
2022-08-16T03:19:36.332Z,20.50
2022-08-16T03:22:19.136Z,20.50
2022-08-16T03:25:01.067Z,20.50
2022-08-16T03:27:32.605Z,20.40
2022-08-16T03:30:16.740Z,20.40
2022-08-16T03:32:47.443Z,20.40
2022-08-16T03:35:17.830Z,20.30
2022-08-16T03:38:01.673Z,20.30
2022-08-16T03:40:42.643Z,20.30
2022-08-16T03:43:19.918Z,20.30
2022-08-16T03:45:54.045Z,20.30
2022-08-16T03:48:36.852Z,20.30
2022-08-16T03:51:12.454Z,20.30
2022-08-16T03:53:43.635Z,20.30
2022-08-16T03:56:19.803Z,20.30
2022-08-16T03:58:50.663Z,20.30
2022-08-16T04:01:23.678Z,20.30
2022-08-16T04:04:00.488Z,20.30
2022-08-16T04:06:31.752Z,20.30
2022-08-16T04:08:59.931Z,20.30
2022-08-16T04:11:36.990Z,20.30
2022-08-16T04:14:30.845Z,20.30
2022-08-16T04:16:57.736Z,20.30
2022-08-16T04:19:31.738Z,20.30
2022-08-16T04:22:01.038Z,20.30
2022-08-16T04:24:43.142Z,20.30
2022-08-16T04:27:29.028Z,20.30
2022-08-16T04:30:03.513Z,20.30
2022-08-16T04:32:39.531Z,20.30
2022-08-16T04:35:20.850Z,20.30
2022-08-16T04:37:53.961Z,20.40
2022-08-16T04:40:25.302Z,20.40
2022-08-16T04:42:56.629Z,20.40
2022-08-16T04:45:35.849Z,20.40
2022-08-16T04:48:10.703Z,20.40
2022-08-16T04:50:43.506Z,20.40
2022-08-16T04:53:15.764Z,20.40
2022-08-16T04:55:53.379Z,20.50
2022-08-16T04:58:44.763Z,20.50
2022-08-16T05:01:12.897Z,20.60
2022-08-16T05:04:00.237Z,20.60
2022-08-16T05:06:45.505Z,20.70
2022-08-16T05:09:16.463Z,20.70
2022-08-16T05:11:44.917Z,20.70
2022-08-16T05:14:20.245Z,20.80
2022-08-16T05:17:03.853Z,20.80
2022-08-16T05:19:33.674Z,20.90
2022-08-16T05:22:06.097Z,20.90
2022-08-16T05:24:47.581Z,20.90
2022-08-16T05:27:17.965Z,20.90
2022-08-16T05:30:00.097Z,21.00
2022-08-16T05:32:45.794Z,21.00
2022-08-16T05:35:19.564Z,21.00
2022-08-16T05:37:55.803Z,21.00
2022-08-16T05:40:26.083Z,21.00
2022-08-16T05:42:56.591Z,21.10
2022-08-16T05:45:25.430Z,21.10
2022-08-16T05:48:00.284Z,21.10
2022-08-16T05:50:34.507Z,21.10
2022-08-16T05:53:05.825Z,21.10
2022-08-16T05:55:40.693Z,21.10
2022-08-16T05:58:31.575Z,21.20
2022-08-16T06:01:06.126Z,21.30
2022-08-16T06:03:42.985Z,21.30
2022-08-16T06:06:28.033Z,21.40
2022-08-16T06:09:02.426Z,21.40
2022-08-16T06:11:37.206Z,21.50
2022-08-16T06:14:12.786Z,21.60
2022-08-16T06:16:44.057Z,21.70
2022-08-16T06:19:14.189Z,21.70
2022-08-16T06:21:44.396Z,21.80
2022-08-16T06:24:53.476Z,21.80
2022-08-16T06:27:04.486Z,21.90
2022-08-16T06:29:33.622Z,22.00
2022-08-16T06:32:07.760Z,22.00
2022-08-16T06:34:57.090Z,22.10
2022-08-16T06:37:53.267Z,22.10
2022-08-16T06:40:23.518Z,22.20
2022-08-16T06:43:03.125Z,22.30
2022-08-16T06:45:32.271Z,22.30
2022-08-16T06:48:00.487Z,22.40
2022-08-16T06:50:34.069Z,22.40
2022-08-16T06:53:09.124Z,22.50
2022-08-16T06:55:38.631Z,22.60
2022-08-16T06:58:22.321Z,22.60
2022-08-16T07:00:58.076Z,22.70
2022-08-16T07:03:55.687Z,22.80
2022-08-16T07:06:21.874Z,22.90
2022-08-16T07:08:59.200Z,22.90
2022-08-16T07:11:48.254Z,23.00
2022-08-16T07:14:24.083Z,23.10
2022-08-16T07:17:59.928Z,23.10
2022-08-16T07:20:35.668Z,23.20
2022-08-16T07:22:58.621Z,23.20
2022-08-16T07:25:40.225Z,23.30
2022-08-16T07:28:20.707Z,23.30
2022-08-16T07:30:55.971Z,23.40
2022-08-16T07:33:52.503Z,23.50
2022-08-16T07:36:24.502Z,23.70
2022-08-16T07:38:52.992Z,23.70
2022-08-16T07:41:28.931Z,23.80
2022-08-16T07:44:00.799Z,23.80
2022-08-16T07:46:38.100Z,23.90
2022-08-16T07:49:11.662Z,23.90
2022-08-16T07:51:43.530Z,23.90
2022-08-16T07:54:20.952Z,24.00
2022-08-16T07:56:53.368Z,23.90
2022-08-16T07:59:26.670Z,24.00
2022-08-16T08:02:19.758Z,24.00
2022-08-16T08:04:51.144Z,24.00
2022-08-16T08:07:27.474Z,24.00
2022-08-16T08:09:57.600Z,24.00
2022-08-16T08:12:31.586Z,24.10
2022-08-16T08:15:05.304Z,24.00
2022-08-16T08:17:42.580Z,24.00
2022-08-16T08:20:20.854Z,24.00
2022-08-16T08:23:01.078Z,24.10
2022-08-16T08:25:53.517Z,24.20
2022-08-16T08:28:20.835Z,24.30
2022-08-16T08:31:00.700Z,24.40
2022-08-16T08:33:34.059Z,24.50
2022-08-16T08:36:05.586Z,24.60
2022-08-16T08:38:45.683Z,24.80
2022-08-16T08:41:18.246Z,24.80
2022-08-16T08:43:50.732Z,24.90
2022-08-16T08:46:21.349Z,24.90
2022-08-16T08:48:59.961Z,24.90
2022-08-16T08:51:36.856Z,24.90
2022-08-16T08:54:10.237Z,24.90
2022-08-16T08:56:45.745Z,25.00
2022-08-16T08:59:19.857Z,25.00
2022-08-16T09:01:57.697Z,25.10
2022-08-16T09:04:31.850Z,25.10
2022-08-16T09:07:02.178Z,25.20
2022-08-16T09:09:33.709Z,25.20
2022-08-16T09:12:05.952Z,25.20
2022-08-16T09:14:38.671Z,25.30
2022-08-16T09:17:17.625Z,25.40
2022-08-16T09:20:00.375Z,25.50
2022-08-16T09:22:31.666Z,25.50
2022-08-16T09:25:11.157Z,25.50
2022-08-16T09:27:46.704Z,25.60
2022-08-16T09:30:33.868Z,25.60
2022-08-16T09:33:06.526Z,25.70
2022-08-16T09:35:37.548Z,25.70
2022-08-16T09:38:08.776Z,25.70
2022-08-16T09:40:43.280Z,25.60
2022-08-16T09:43:46.403Z,25.60
2022-08-16T09:46:04.905Z,25.70
2022-08-16T09:48:56.568Z,25.70
2022-08-16T09:51:26.292Z,25.80
2022-08-16T09:54:06.149Z,25.80
2022-08-16T09:56:52.260Z,25.90
2022-08-16T09:59:25.230Z,26.10
2022-08-16T10:01:55.195Z,26.30
2022-08-16T10:04:31.446Z,26.60
2022-08-16T10:07:15.362Z,26.80
2022-08-16T10:09:54.650Z,27.00
2022-08-16T10:12:43.138Z,27.20
2022-08-16T10:15:15.978Z,27.30
2022-08-16T10:18:00.758Z,27.50
2022-08-16T10:20:34.082Z,27.70
2022-08-16T10:23:07.349Z,27.90
2022-08-16T10:27:17.874Z,28.00
2022-08-16T10:28:28.636Z,28.10
2022-08-16T10:30:59.310Z,28.10
2022-08-16T10:33:33.540Z,28.00
2022-08-16T10:36:07.782Z,28.00
2022-08-16T10:38:38.608Z,28.10
2022-08-16T10:41:08.916Z,28.10
2022-08-16T10:43:39.604Z,28.20
2022-08-16T10:46:39.139Z,28.30
2022-08-16T10:49:10.493Z,28.40
2022-08-16T10:52:01.132Z,28.60
2022-08-16T10:54:30.220Z,28.70
2022-08-16T10:56:59.413Z,28.80
2022-08-16T10:59:39.094Z,28.80
2022-08-16T11:02:56.920Z,29.00
2022-08-16T11:05:11.603Z,29.10
2022-08-16T11:07:51.550Z,29.20
2022-08-16T11:19:06.120Z,29.60
2022-08-16T11:24:41.578Z,29.40
2022-08-16T11:27:20.431Z,29.40
2022-08-16T11:29:52.285Z,29.30
2022-08-16T11:32:29.694Z,29.30
2022-08-16T11:35:10.587Z,29.40
2022-08-16T11:40:36.320Z,29.60
2022-08-16T11:43:05.012Z,29.60
2022-08-16T11:45:34.816Z,29.70
2022-08-16T11:48:05.245Z,29.80
2022-08-16T11:50:34.282Z,29.80
2022-08-16T11:53:05.361Z,29.90
2022-08-16T11:55:38.216Z,30.00
2022-08-16T11:58:11.035Z,30.10
2022-08-16T12:00:51.897Z,30.00
2022-08-16T12:03:34.362Z,30.00
2022-08-16T12:06:10.823Z,30.10
2022-08-16T12:09:00.914Z,30.20
2022-08-16T12:11:31.696Z,30.30
2022-08-16T12:14:01.203Z,30.40
2022-08-16T12:16:34.406Z,30.50
2022-08-16T12:19:04.587Z,30.60
2022-08-16T12:21:36.132Z,30.60
2022-08-16T12:24:23.843Z,30.70
2022-08-16T12:26:52.434Z,30.80
2022-08-16T12:29:22.230Z,30.80
2022-08-16T12:32:00.977Z,30.90
2022-08-16T12:34:48.104Z,31.00
2022-08-16T12:37:24.334Z,31.00
2022-08-16T12:39:56.073Z,30.70
2022-08-16T12:42:34.489Z,30.30
2022-08-16T12:45:06.042Z,30.20
2022-08-16T12:47:53.248Z,30.20
2022-08-16T12:50:32.969Z,30.10
2022-08-16T12:53:01.970Z,30.10
2022-08-16T12:55:33.537Z,30.10
2022-08-16T12:58:13.746Z,30.10
2022-08-16T13:00:58.390Z,30.10
2022-08-16T13:03:29.070Z,30.10
2022-08-16T13:06:01.338Z,30.10
2022-08-16T13:08:33.426Z,30.00
2022-08-16T13:11:04.530Z,29.80
2022-08-16T13:13:37.675Z,29.70
2022-08-16T13:16:20.457Z,29.70
2022-08-16T13:18:51.681Z,29.60
2022-08-16T13:21:23.354Z,29.60
2022-08-16T13:23:55.437Z,29.70
2022-08-16T13:26:26.489Z,29.80
2022-08-16T13:28:55.456Z,29.90
2022-08-16T13:31:24.075Z,30.10
2022-08-16T13:33:54.560Z,30.30
2022-08-16T13:39:15.428Z,30.40
2022-08-16T13:41:53.482Z,30.50
2022-08-16T13:44:22.626Z,30.60
2022-08-16T13:47:11.307Z,30.60
2022-08-16T13:49:41.363Z,30.50
2022-08-16T13:52:17.099Z,30.40
2022-08-16T13:54:50.142Z,30.40
2022-08-16T13:58:35.695Z,30.30
2022-08-16T14:00:20.947Z,30.40
2022-08-16T14:02:58.885Z,30.30
2022-08-16T14:05:27.623Z,30.20
2022-08-16T14:07:57.629Z,30.10
2022-08-16T14:10:28.833Z,30.00
2022-08-16T14:12:58.877Z,29.90
2022-08-16T14:15:28.346Z,29.80
2022-08-16T14:18:17.566Z,29.80
2022-08-16T14:20:51.273Z,29.70
2022-08-16T14:23:21.780Z,29.70
2022-08-16T14:25:54.096Z,29.60
2022-08-16T14:28:25.947Z,29.50
2022-08-16T14:30:55.206Z,29.50
2022-08-16T14:33:26.509Z,29.60
2022-08-16T14:36:06.384Z,29.50
2022-08-16T14:38:37.491Z,29.40
2022-08-16T14:41:10.387Z,29.40
2022-08-16T14:43:40.146Z,29.30
2022-08-16T14:46:11.661Z,29.40
2022-08-16T14:48:42.315Z,29.40
2022-08-16T14:51:20.835Z,29.40
2022-08-16T14:53:59.634Z,29.50
2022-08-16T14:56:38.508Z,29.50
2022-08-16T14:59:17.966Z,29.50
2022-08-16T15:01:59.374Z,29.40
2022-08-16T15:04:47.867Z,29.30
2022-08-16T15:07:22.077Z,29.10
2022-08-16T15:10:01.690Z,29.10
2022-08-16T15:12:45.531Z,29.10
2022-08-16T15:15:21.581Z,29.10
2022-08-16T15:17:59.168Z,29.00
2022-08-16T15:20:35.470Z,29.00
2022-08-16T15:23:06.882Z,28.90
2022-08-16T15:25:46.517Z,28.80
2022-08-16T15:28:31.041Z,28.80
2022-08-16T15:31:03.758Z,28.80
2022-08-16T15:33:42.174Z,28.80
2022-08-16T15:36:17.542Z,28.80
2022-08-16T15:39:03.065Z,28.80
2022-08-16T15:42:01.788Z,28.80
2022-08-16T15:44:44.569Z,28.70
2022-08-16T15:47:27.174Z,28.70
2022-08-16T15:49:56.576Z,28.70
2022-08-16T15:52:29.126Z,28.60
2022-08-16T15:55:00.314Z,28.60
2022-08-16T15:57:36.861Z,28.50
2022-08-16T16:00:14.704Z,28.50
2022-08-16T16:02:50.328Z,28.40
2022-08-16T16:05:20.256Z,28.40
2022-08-16T16:07:56.758Z,28.30
2022-08-16T16:10:38.109Z,28.30
2022-08-16T16:13:09.049Z,28.20
2022-08-16T16:15:39.536Z,28.20
2022-08-16T16:18:10.275Z,28.10
2022-08-16T16:20:43.524Z,28.10
2022-08-16T16:23:14.990Z,28.10
2022-08-16T16:25:45.048Z,28.00
2022-08-16T16:28:51.379Z,28.00
2022-08-16T16:31:04.911Z,27.80
2022-08-16T16:33:39.835Z,27.70
2022-08-16T16:36:08.867Z,27.60
2022-08-16T16:38:39.212Z,27.50
2022-08-16T16:41:11.079Z,27.40
2022-08-16T16:43:41.088Z,27.40
2022-08-16T16:46:41.932Z,27.50
2022-08-16T16:49:00.460Z,27.60
2022-08-16T16:51:32.123Z,27.60
2022-08-16T16:54:12.981Z,27.70
2022-08-16T16:56:49.573Z,27.70
2022-08-16T16:59:18.292Z,27.70
2022-08-16T17:01:59.608Z,27.70
2022-08-16T17:04:39.447Z,27.70
2022-08-16T17:07:11.106Z,27.70
2022-08-16T17:09:41.089Z,27.60
2022-08-16T17:12:10.220Z,27.60
2022-08-16T17:14:47.238Z,27.50
2022-08-16T17:17:15.357Z,27.40
2022-08-16T17:19:45.563Z,27.20
2022-08-16T17:22:16.011Z,27.20
2022-08-16T17:24:50.825Z,27.10
2022-08-16T17:27:32.530Z,27.00
2022-08-16T17:30:03.143Z,26.90
2022-08-16T17:32:46.997Z,26.90
2022-08-16T17:35:23.038Z,26.90
2022-08-16T17:37:52.550Z,27.00
2022-08-16T17:40:40.445Z,27.00
2022-08-16T17:43:13.800Z,26.90
2022-08-16T17:45:42.847Z,26.90
2022-08-16T17:48:11.078Z,26.90
2022-08-16T17:50:41.008Z,26.80
2022-08-16T17:53:09.905Z,26.70
2022-08-16T17:55:40.417Z,26.60
2022-08-16T17:58:22.968Z,26.60
2022-08-16T18:00:55.007Z,26.60
2022-08-16T18:04:02.782Z,26.50
2022-08-16T18:06:18.676Z,26.50
2022-08-16T18:08:48.506Z,26.50
2022-08-16T18:11:25.721Z,26.50
2022-08-16T18:13:55.158Z,26.40
2022-08-16T18:16:23.753Z,26.40
2022-08-16T18:18:51.842Z,26.30
2022-08-16T18:21:39.309Z,26.30
2022-08-16T18:24:08.029Z,26.30
2022-08-16T18:26:36.209Z,25.90
2022-08-16T18:29:04.636Z,25.80
2022-08-16T18:31:32.763Z,25.70
2022-08-16T18:34:01.241Z,25.70
2022-08-16T18:36:30.945Z,25.60
2022-08-16T18:38:59.360Z,25.50
2022-08-16T18:41:29.024Z,25.50
2022-08-16T18:44:25.171Z,25.40
2022-08-16T18:46:50.740Z,25.30
2022-08-16T18:49:19.780Z,25.10
2022-08-16T18:51:50.669Z,25.00
2022-08-16T18:54:19.127Z,24.90
2022-08-16T18:56:56.550Z,24.90
2022-08-16T18:59:27.537Z,24.80
2022-08-16T19:02:00.139Z,24.80
2022-08-16T19:04:56.108Z,24.80
2022-08-16T19:07:23.011Z,24.80
2022-08-16T19:09:58.729Z,24.70
2022-08-16T19:12:38.071Z,24.70
2022-08-16T19:15:14.227Z,24.60
2022-08-16T19:17:43.022Z,24.60
2022-08-16T19:20:12.870Z,24.50
2022-08-16T19:23:04.524Z,24.50
2022-08-16T19:25:47.635Z,24.40
2022-08-16T19:28:51.409Z,24.40
2022-08-16T19:31:12.458Z,24.40
2022-08-16T19:33:41.101Z,24.30
2022-08-16T19:36:31.590Z,24.30
2022-08-16T19:39:04.548Z,24.20
2022-08-16T19:41:34.763Z,24.00
2022-08-16T19:44:03.024Z,24.00
2022-08-16T19:46:31.840Z,23.80
2022-08-16T19:49:00.348Z,23.80
2022-08-16T19:51:28.590Z,23.80
2022-08-16T19:53:56.784Z,23.80
2022-08-16T19:56:26.939Z,23.80
2022-08-16T19:59:18.294Z,23.80
2022-08-16T20:01:44.851Z,23.80
2022-08-16T20:04:13.641Z,23.70
2022-08-16T20:06:42.147Z,23.60
2022-08-16T20:09:12.672Z,23.60
2022-08-16T20:11:46.303Z,23.50
2022-08-16T20:14:20.191Z,23.50
2022-08-16T20:16:54.984Z,23.40
2022-08-16T20:19:23.393Z,23.40
2022-08-16T20:21:51.399Z,23.40
2022-08-16T20:24:36.246Z,23.30
2022-08-16T20:27:09.485Z,23.30
2022-08-16T20:29:39.752Z,23.20
2022-08-16T20:32:10.168Z,23.20
2022-08-16T20:34:38.459Z,23.20
2022-08-16T20:37:07.247Z,23.10
2022-08-16T20:39:35.343Z,23.10
2022-08-16T20:42:03.409Z,23.00
2022-08-16T20:44:33.297Z,23.00
2022-08-16T20:47:01.339Z,23.00
2022-08-16T20:49:29.412Z,23.00
2022-08-16T20:51:59.728Z,23.00
2022-08-16T20:54:29.652Z,22.90
2022-08-16T20:56:58.105Z,22.90
2022-08-16T20:59:26.301Z,22.80
2022-08-16T21:01:55.847Z,22.80
2022-08-16T21:04:26.481Z,22.80
2022-08-16T21:06:55.588Z,22.80
2022-08-16T21:09:25.299Z,22.80
2022-08-16T21:11:55.501Z,22.70
2022-08-16T21:14:23.864Z,22.70
2022-08-16T21:16:52.275Z,22.60
2022-08-16T21:19:22.152Z,22.60
2022-08-16T21:21:50.364Z,22.50
2022-08-16T21:24:18.465Z,22.50
2022-08-16T21:26:53.869Z,22.40
2022-08-16T21:29:38.401Z,22.40
2022-08-16T21:32:13.319Z,22.30
2022-08-16T21:34:43.401Z,22.30
2022-08-16T21:37:11.613Z,22.20
2022-08-16T21:39:43.813Z,22.20
2022-08-16T21:42:14.429Z,22.20
2022-08-16T21:44:43.064Z,22.10
2022-08-16T21:47:11.316Z,22.10
2022-08-16T21:49:39.567Z,22.00
2022-08-16T21:52:22.685Z,22.00
2022-08-16T21:54:57.059Z,22.00
2022-08-16T21:57:25.711Z,21.90
2022-08-16T21:59:55.513Z,21.90
2022-08-16T22:02:38.874Z,21.90
2022-08-16T22:05:07.724Z,21.80
2022-08-16T22:07:37.346Z,21.70
2022-08-16T22:11:05.660Z,21.70
2022-08-16T22:12:54.467Z,21.70
2022-08-16T22:15:25.772Z,21.60
2022-08-16T22:17:55.609Z,21.60
2022-08-16T22:20:26.458Z,21.50
2022-08-16T22:23:05.935Z,21.50
2022-08-16T22:25:34.162Z,21.50
2022-08-16T22:28:03.901Z,21.40
2022-08-16T22:30:32.179Z,21.40
2022-08-16T22:33:01.191Z,21.30
2022-08-16T22:35:29.244Z,21.30
2022-08-16T22:38:53.413Z,21.30
2022-08-16T22:40:48.370Z,21.20
2022-08-16T22:43:17.829Z,21.20
2022-08-16T22:45:45.798Z,21.10
2022-08-16T22:48:15.944Z,21.10
2022-08-16T22:50:44.617Z,21.00
2022-08-16T22:53:14.905Z,21.00
2022-08-16T22:55:42.936Z,21.00
2022-08-16T22:58:11.470Z,21.00
2022-08-16T23:00:39.418Z,20.90
2022-08-16T23:03:10.282Z,20.90
2022-08-16T23:05:41.118Z,20.80
2022-08-16T23:08:11.292Z,20.80
2022-08-16T23:10:41.284Z,20.80
2022-08-16T23:13:10.874Z,20.70
2022-08-16T23:15:44.906Z,20.70
2022-08-16T23:18:13.598Z,20.70
2022-08-16T23:20:42.392Z,20.70
2022-08-16T23:23:19.229Z,20.60
2022-08-16T23:25:55.105Z,20.60
2022-08-16T23:28:25.941Z,20.60
2022-08-16T23:30:54.385Z,20.50
2022-08-16T23:33:23.422Z,20.50
2022-08-16T23:35:56.140Z,20.50
2022-08-16T23:38:37.978Z,20.40
2022-08-16T23:41:11.532Z,20.40
2022-08-16T23:43:41.823Z,20.30
2022-08-16T23:46:13.179Z,20.30
2022-08-16T23:50:01.899Z,20.30
2022-08-16T23:51:29.992Z,20.20
2022-08-16T23:53:58.010Z,20.20
2022-08-16T23:56:27.327Z,20.20
2022-08-16T23:59:02.866Z,20.20
